sensor_id;sensor_type;location;lat;lon;timestamp;P1;durP1;ratioP1;P2;durP2;ratioP2
9968;SDS011;5025;48.890;9.278;2023-02-18T00:01:25;0.93;;;0.93;;
9968;SDS011;5025;48.890;9.278;2023-02-18T00:03:51;1.10;;;1.10;;
9968;SDS011;5025;48.890;9.278;2023-02-18T00:06:17;1.03;;;1.03;;
9968;SDS011;5025;48.890;9.278;2023-02-18T00:08:45;1.27;;;1.10;;
9968;SDS011;5025;48.890;9.278;2023-02-18T00:11:11;1.10;;;1.10;;
9968;SDS011;5025;48.890;9.278;2023-02-18T00:13:37;1.10;;;1.10;;
9968;SDS011;5025;48.890;9.278;2023-02-18T00:16:07;1.00;;;1.00;;
9968;SDS011;5025;48.890;9.278;2023-02-18T00:18:34;1.10;;;1.10;;
9968;SDS011;5025;48.890;9.278;2023-02-18T00:20:59;1.03;;;1.03;;
9968;SDS011;5025;48.890;9.278;2023-02-18T00:23:26;0.77;;;0.77;;
9968;SDS011;5025;48.890;9.278;2023-02-18T00:25:59;1.30;;;1.20;;
9968;SDS011;5025;48.890;9.278;2023-02-18T00:28:27;1.00;;;1.00;;
9968;SDS011;5025;48.890;9.278;2023-02-18T00:30:53;1.00;;;1.00;;
9968;SDS011;5025;48.890;9.278;2023-02-18T00:33:18;1.53;;;1.00;;
9968;SDS011;5025;48.890;9.278;2023-02-18T00:35:43;1.10;;;1.10;;
9968;SDS011;5025;48.890;9.278;2023-02-18T00:38:08;0.90;;;0.90;;
9968;SDS011;5025;48.890;9.278;2023-02-18T00:40:37;0.87;;;0.87;;
9968;SDS011;5025;48.890;9.278;2023-02-18T00:43:03;0.80;;;0.80;;
9968;SDS011;5025;48.890;9.278;2023-02-18T00:45:28;0.83;;;0.83;;
9968;SDS011;5025;48.890;9.278;2023-02-18T00:47:54;0.70;;;0.70;;
9968;SDS011;5025;48.890;9.278;2023-02-18T00:50:19;0.90;;;0.90;;
9968;SDS011;5025;48.890;9.278;2023-02-18T00:52:45;1.00;;;0.93;;
9968;SDS011;5025;48.890;9.278;2023-02-18T00:55:10;1.00;;;1.00;;
9968;SDS011;5025;48.890;9.278;2023-02-18T00:57:36;0.90;;;0.90;;
9968;SDS011;5025;48.890;9.278;2023-02-18T01:00:02;1.00;;;1.00;;
9968;SDS011;5025;48.890;9.278;2023-02-18T01:02:29;1.27;;;0.93;;
9968;SDS011;5025;48.890;9.278;2023-02-18T01:04:54;1.03;;;1.03;;
9968;SDS011;5025;48.890;9.278;2023-02-18T01:07:19;0.90;;;0.90;;
9968;SDS011;5025;48.890;9.278;2023-02-18T01:09:45;0.77;;;0.77;;
9968;SDS011;5025;48.890;9.278;2023-02-18T01:12:10;0.80;;;0.80;;
9968;SDS011;5025;48.890;9.278;2023-02-18T01:14:35;1.00;;;1.00;;
9968;SDS011;5025;48.890;9.278;2023-02-18T01:17:00;1.03;;;1.03;;
9968;SDS011;5025;48.890;9.278;2023-02-18T01:19:26;0.90;;;0.90;;
9968;SDS011;5025;48.890;9.278;2023-02-18T01:21:51;0.83;;;0.83;;
9968;SDS011;5025;48.890;9.278;2023-02-18T01:24:16;1.00;;;1.00;;
9968;SDS011;5025;48.890;9.278;2023-02-18T01:26:44;1.00;;;1.00;;
9968;SDS011;5025;48.890;9.278;2023-02-18T01:29:09;0.90;;;0.90;;
9968;SDS011;5025;48.890;9.278;2023-02-18T01:31:35;1.00;;;1.00;;
9968;SDS011;5025;48.890;9.278;2023-02-18T01:34:00;1.47;;;1.27;;
9968;SDS011;5025;48.890;9.278;2023-02-18T01:36:25;1.03;;;1.03;;
9968;SDS011;5025;48.890;9.278;2023-02-18T01:38:50;1.47;;;1.10;;
9968;SDS011;5025;48.890;9.278;2023-02-18T01:41:17;1.27;;;1.20;;
9968;SDS011;5025;48.890;9.278;2023-02-18T01:43:42;1.70;;;1.20;;
9968;SDS011;5025;48.890;9.278;2023-02-18T01:46:16;1.57;;;1.47;;
9968;SDS011;5025;48.890;9.278;2023-02-18T01:48:58;1.43;;;1.33;;
9968;SDS011;5025;48.890;9.278;2023-02-18T01:51:35;1.30;;;1.30;;
9968;SDS011;5025;48.890;9.278;2023-02-18T01:56:41;1.20;;;1.20;;
9968;SDS011;5025;48.890;9.278;2023-02-18T01:59:23;1.33;;;1.33;;
9968;SDS011;5025;48.890;9.278;2023-02-18T02:01:50;1.40;;;1.30;;
9968;SDS011;5025;48.890;9.278;2023-02-18T02:04:17;1.33;;;1.27;;
9968;SDS011;5025;48.890;9.278;2023-02-18T02:06:42;1.33;;;1.33;;
9968;SDS011;5025;48.890;9.278;2023-02-18T02:09:10;1.13;;;1.13;;
9968;SDS011;5025;48.890;9.278;2023-02-18T02:17:31;1.23;;;1.20;;
9968;SDS011;5025;48.890;9.278;2023-02-18T02:36:22;1.00;;;1.00;;
9968;SDS011;5025;48.890;9.278;2023-02-18T02:39:07;1.10;;;1.10;;
9968;SDS011;5025;48.890;9.278;2023-02-18T02:41:54;1.13;;;1.13;;
9968;SDS011;5025;48.890;9.278;2023-02-18T02:44:44;1.00;;;1.00;;
9968;SDS011;5025;48.890;9.278;2023-02-18T02:47:19;1.20;;;1.20;;
9968;SDS011;5025;48.890;9.278;2023-02-18T02:52:27;1.20;;;1.20;;
9968;SDS011;5025;48.890;9.278;2023-02-18T02:54:56;1.30;;;1.30;;
9968;SDS011;5025;48.890;9.278;2023-02-18T02:59:49;1.23;;;1.23;;
9968;SDS011;5025;48.890;9.278;2023-02-18T03:10:44;1.37;;;1.27;;
9968;SDS011;5025;48.890;9.278;2023-02-18T03:19:23;1.37;;;1.27;;
9968;SDS011;5025;48.890;9.278;2023-02-18T03:21:57;1.30;;;1.30;;
9968;SDS011;5025;48.890;9.278;2023-02-18T03:24:31;1.63;;;1.53;;
9968;SDS011;5025;48.890;9.278;2023-02-18T03:27:12;1.27;;;1.27;;
9968;SDS011;5025;48.890;9.278;2023-02-18T03:29:42;1.10;;;1.10;;
9968;SDS011;5025;48.890;9.278;2023-02-18T03:32:11;1.90;;;1.60;;
9968;SDS011;5025;48.890;9.278;2023-02-18T03:34:41;1.30;;;1.30;;
9968;SDS011;5025;48.890;9.278;2023-02-18T03:37:11;1.30;;;1.30;;
9968;SDS011;5025;48.890;9.278;2023-02-18T03:39:39;1.30;;;1.30;;
9968;SDS011;5025;48.890;9.278;2023-02-18T03:42:08;1.30;;;1.30;;
9968;SDS011;5025;48.890;9.278;2023-02-18T03:44:33;1.10;;;1.10;;
9968;SDS011;5025;48.890;9.278;2023-02-18T03:46:58;1.13;;;1.13;;
9968;SDS011;5025;48.890;9.278;2023-02-18T03:49:24;1.30;;;1.30;;
9968;SDS011;5025;48.890;9.278;2023-02-18T03:51:49;1.20;;;1.20;;
9968;SDS011;5025;48.890;9.278;2023-02-18T03:54:14;1.20;;;1.20;;
9968;SDS011;5025;48.890;9.278;2023-02-18T03:56:40;1.40;;;1.30;;
9968;SDS011;5025;48.890;9.278;2023-02-18T03:59:06;1.23;;;1.20;;
9968;SDS011;5025;48.890;9.278;2023-02-18T04:01:32;1.30;;;1.30;;
9968;SDS011;5025;48.890;9.278;2023-02-18T04:03:57;1.50;;;1.40;;
9968;SDS011;5025;48.890;9.278;2023-02-18T04:06:23;1.27;;;1.27;;
9968;SDS011;5025;48.890;9.278;2023-02-18T04:08:48;1.10;;;1.10;;
9968;SDS011;5025;48.890;9.278;2023-02-18T04:11:14;1.20;;;1.10;;
9968;SDS011;5025;48.890;9.278;2023-02-18T04:13:39;1.30;;;1.30;;
9968;SDS011;5025;48.890;9.278;2023-02-18T04:16:04;1.40;;;1.40;;
9968;SDS011;5025;48.890;9.278;2023-02-18T04:18:30;1.40;;;1.40;;
9968;SDS011;5025;48.890;9.278;2023-02-18T04:20:55;1.27;;;1.27;;
9968;SDS011;5025;48.890;9.278;2023-02-18T04:23:21;1.57;;;1.50;;
9968;SDS011;5025;48.890;9.278;2023-02-18T04:25:46;1.10;;;1.10;;
9968;SDS011;5025;48.890;9.278;2023-02-18T04:28:12;1.10;;;1.10;;
9968;SDS011;5025;48.890;9.278;2023-02-18T04:30:40;1.27;;;1.27;;
9968;SDS011;5025;48.890;9.278;2023-02-18T04:33:06;1.30;;;1.20;;
9968;SDS011;5025;48.890;9.278;2023-02-18T04:35:31;1.37;;;1.27;;
9968;SDS011;5025;48.890;9.278;2023-02-18T04:37:56;1.00;;;1.00;;
9968;SDS011;5025;48.890;9.278;2023-02-18T04:40:22;1.93;;;1.20;;
9968;SDS011;5025;48.890;9.278;2023-02-18T04:42:49;1.10;;;1.10;;
9968;SDS011;5025;48.890;9.278;2023-02-18T04:45:14;1.00;;;1.00;;
9968;SDS011;5025;48.890;9.278;2023-02-18T04:47:40;1.10;;;1.10;;
9968;SDS011;5025;48.890;9.278;2023-02-18T04:50:05;1.20;;;1.10;;
9968;SDS011;5025;48.890;9.278;2023-02-18T04:52:31;1.10;;;1.10;;
9968;SDS011;5025;48.890;9.278;2023-02-18T04:54:57;1.10;;;1.10;;
9968;SDS011;5025;48.890;9.278;2023-02-18T04:57:22;1.33;;;1.30;;
9968;SDS011;5025;48.890;9.278;2023-02-18T04:59:47;1.10;;;1.10;;
9968;SDS011;5025;48.890;9.278;2023-02-18T05:02:12;1.30;;;1.30;;
9968;SDS011;5025;48.890;9.278;2023-02-18T05:04:38;2.13;;;1.20;;
9968;SDS011;5025;48.890;9.278;2023-02-18T05:07:03;1.20;;;1.07;;
9968;SDS011;5025;48.890;9.278;2023-02-18T05:09:28;1.33;;;1.30;;
9968;SDS011;5025;48.890;9.278;2023-02-18T05:11:54;1.60;;;1.23;;
9968;SDS011;5025;48.890;9.278;2023-02-18T05:14:19;1.00;;;1.00;;
9968;SDS011;5025;48.890;9.278;2023-02-18T05:16:44;1.03;;;1.00;;
9968;SDS011;5025;48.890;9.278;2023-02-18T05:19:12;1.00;;;1.00;;
9968;SDS011;5025;48.890;9.278;2023-02-18T05:21:39;1.00;;;1.00;;
9968;SDS011;5025;48.890;9.278;2023-02-18T05:24:04;0.90;;;0.90;;
9968;SDS011;5025;48.890;9.278;2023-02-18T05:26:30;1.10;;;1.10;;
9968;SDS011;5025;48.890;9.278;2023-02-18T05:28:55;1.40;;;1.30;;
9968;SDS011;5025;48.890;9.278;2023-02-18T05:31:21;1.20;;;1.10;;
9968;SDS011;5025;48.890;9.278;2023-02-18T05:33:46;1.33;;;1.23;;
9968;SDS011;5025;48.890;9.278;2023-02-18T05:36:12;1.00;;;1.00;;
9968;SDS011;5025;48.890;9.278;2023-02-18T05:38:37;1.30;;;1.13;;
9968;SDS011;5025;48.890;9.278;2023-02-18T05:41:02;1.00;;;1.00;;
9968;SDS011;5025;48.890;9.278;2023-02-18T05:43:28;1.10;;;1.10;;
9968;SDS011;5025;48.890;9.278;2023-02-18T05:45:53;1.10;;;1.10;;
9968;SDS011;5025;48.890;9.278;2023-02-18T05:48:18;1.20;;;1.20;;
9968;SDS011;5025;48.890;9.278;2023-02-18T05:50:44;1.03;;;1.03;;
9968;SDS011;5025;48.890;9.278;2023-02-18T05:53:09;1.20;;;1.10;;
9968;SDS011;5025;48.890;9.278;2023-02-18T05:55:34;0.90;;;0.90;;
9968;SDS011;5025;48.890;9.278;2023-02-18T05:58:02;1.60;;;1.10;;
9968;SDS011;5025;48.890;9.278;2023-02-18T06:00:28;1.20;;;1.10;;
9968;SDS011;5025;48.890;9.278;2023-02-18T06:02:55;1.00;;;1.00;;
9968;SDS011;5025;48.890;9.278;2023-02-18T06:05:21;1.00;;;1.00;;
9968;SDS011;5025;48.890;9.278;2023-02-18T06:07:46;1.10;;;1.10;;
9968;SDS011;5025;48.890;9.278;2023-02-18T06:10:12;1.00;;;1.00;;
9968;SDS011;5025;48.890;9.278;2023-02-18T06:12:37;1.10;;;1.10;;
9968;SDS011;5025;48.890;9.278;2023-02-18T06:15:02;1.20;;;1.20;;
9968;SDS011;5025;48.890;9.278;2023-02-18T06:17:28;1.20;;;1.10;;
9968;SDS011;5025;48.890;9.278;2023-02-18T06:19:53;1.20;;;1.20;;
9968;SDS011;5025;48.890;9.278;2023-02-18T06:22:19;1.40;;;1.30;;
9968;SDS011;5025;48.890;9.278;2023-02-18T06:24:44;1.50;;;1.40;;
9968;SDS011;5025;48.890;9.278;2023-02-18T06:27:09;1.07;;;1.07;;
9968;SDS011;5025;48.890;9.278;2023-02-18T06:29:35;1.30;;;1.30;;
9968;SDS011;5025;48.890;9.278;2023-02-18T06:32:00;1.10;;;1.10;;
9968;SDS011;5025;48.890;9.278;2023-02-18T06:34:26;1.07;;;1.07;;
9968;SDS011;5025;48.890;9.278;2023-02-18T06:36:52;1.20;;;1.20;;
9968;SDS011;5025;48.890;9.278;2023-02-18T06:39:17;1.10;;;1.10;;
9968;SDS011;5025;48.890;9.278;2023-02-18T06:41:43;1.30;;;1.30;;
9968;SDS011;5025;48.890;9.278;2023-02-18T06:44:08;1.50;;;1.40;;
9968;SDS011;5025;48.890;9.278;2023-02-18T06:46:35;1.60;;;1.50;;
9968;SDS011;5025;48.890;9.278;2023-02-18T06:49:00;1.50;;;1.43;;
9968;SDS011;5025;48.890;9.278;2023-02-18T06:51:26;1.70;;;1.60;;
9968;SDS011;5025;48.890;9.278;2023-02-18T06:53:51;1.70;;;1.60;;
9968;SDS011;5025;48.890;9.278;2023-02-18T06:56:16;1.60;;;1.50;;
9968;SDS011;5025;48.890;9.278;2023-02-18T06:58:42;1.90;;;1.80;;
9968;SDS011;5025;48.890;9.278;2023-02-18T07:01:07;2.20;;;2.10;;
9968;SDS011;5025;48.890;9.278;2023-02-18T07:03:32;1.60;;;1.50;;
9968;SDS011;5025;48.890;9.278;2023-02-18T07:05:58;1.50;;;1.50;;
9968;SDS011;5025;48.890;9.278;2023-02-18T07:08:23;1.20;;;1.20;;
9968;SDS011;5025;48.890;9.278;2023-02-18T07:10:49;1.60;;;1.50;;
9968;SDS011;5025;48.890;9.278;2023-02-18T07:13:14;1.23;;;1.23;;
9968;SDS011;5025;48.890;9.278;2023-02-18T07:15:40;1.40;;;1.30;;
9968;SDS011;5025;48.890;9.278;2023-02-18T07:18:05;1.20;;;1.10;;
9968;SDS011;5025;48.890;9.278;2023-02-18T07:20:31;1.20;;;1.20;;
9968;SDS011;5025;48.890;9.278;2023-02-18T07:22:56;0.90;;;0.90;;
9968;SDS011;5025;48.890;9.278;2023-02-18T07:25:22;1.30;;;1.20;;
9968;SDS011;5025;48.890;9.278;2023-02-18T07:27:47;1.30;;;1.23;;
9968;SDS011;5025;48.890;9.278;2023-02-18T07:30:13;1.43;;;1.33;;
9968;SDS011;5025;48.890;9.278;2023-02-18T07:32:38;1.60;;;1.50;;
9968;SDS011;5025;48.890;9.278;2023-02-18T07:35:04;1.60;;;1.50;;
9968;SDS011;5025;48.890;9.278;2023-02-18T07:37:30;2.33;;;2.10;;
9968;SDS011;5025;48.890;9.278;2023-02-18T07:39:55;2.27;;;2.07;;
9968;SDS011;5025;48.890;9.278;2023-02-18T07:42:20;2.40;;;2.20;;
9968;SDS011;5025;48.890;9.278;2023-02-18T07:44:45;1.70;;;1.60;;
9968;SDS011;5025;48.890;9.278;2023-02-18T07:47:12;1.67;;;1.50;;
9968;SDS011;5025;48.890;9.278;2023-02-18T07:49:39;1.80;;;1.43;;
9968;SDS011;5025;48.890;9.278;2023-02-18T07:52:04;8.70;;;1.70;;
9968;SDS011;5025;48.890;9.278;2023-02-18T07:54:30;1.80;;;1.70;;
9968;SDS011;5025;48.890;9.278;2023-02-18T07:56:55;1.40;;;1.40;;
9968;SDS011;5025;48.890;9.278;2023-02-18T07:59:20;1.63;;;1.43;;
9968;SDS011;5025;48.890;9.278;2023-02-18T08:01:46;1.73;;;1.63;;
9968;SDS011;5025;48.890;9.278;2023-02-18T08:04:11;1.80;;;1.70;;
9968;SDS011;5025;48.890;9.278;2023-02-18T08:06:39;1.50;;;1.40;;
9968;SDS011;5025;48.890;9.278;2023-02-18T08:09:06;1.80;;;1.70;;
9968;SDS011;5025;48.890;9.278;2023-02-18T08:11:33;1.57;;;1.47;;
9968;SDS011;5025;48.890;9.278;2023-02-18T08:13:58;1.53;;;1.43;;
9968;SDS011;5025;48.890;9.278;2023-02-18T08:16:24;2.60;;;1.40;;
9968;SDS011;5025;48.890;9.278;2023-02-18T08:18:50;1.60;;;1.50;;
9968;SDS011;5025;48.890;9.278;2023-02-18T08:21:16;2.43;;;1.60;;
9968;SDS011;5025;48.890;9.278;2023-02-18T08:23:43;2.50;;;2.30;;
9968;SDS011;5025;48.890;9.278;2023-02-18T08:26:08;6.70;;;4.57;;
9968;SDS011;5025;48.890;9.278;2023-02-18T08:28:36;6.00;;;5.40;;
9968;SDS011;5025;48.890;9.278;2023-02-18T08:31:01;3.83;;;3.53;;
9968;SDS011;5025;48.890;9.278;2023-02-18T08:33:27;2.93;;;2.73;;
9968;SDS011;5025;48.890;9.278;2023-02-18T08:35:53;1.97;;;1.87;;
9968;SDS011;5025;48.890;9.278;2023-02-18T08:38:19;2.17;;;2.07;;
9968;SDS011;5025;48.890;9.278;2023-02-18T08:40:45;2.43;;;2.33;;
9968;SDS011;5025;48.890;9.278;2023-02-18T08:43:10;2.30;;;2.10;;
9968;SDS011;5025;48.890;9.278;2023-02-18T08:45:37;2.00;;;1.80;;
9968;SDS011;5025;48.890;9.278;2023-02-18T08:48:06;1.80;;;1.70;;
9968;SDS011;5025;48.890;9.278;2023-02-18T08:50:33;2.23;;;2.13;;
9968;SDS011;5025;48.890;9.278;2023-02-18T08:52:59;2.20;;;2.10;;
9968;SDS011;5025;48.890;9.278;2023-02-18T08:55:27;3.00;;;2.70;;
9968;SDS011;5025;48.890;9.278;2023-02-18T08:57:56;2.87;;;2.67;;
9968;SDS011;5025;48.890;9.278;2023-02-18T09:00:22;2.40;;;2.20;;
9968;SDS011;5025;48.890;9.278;2023-02-18T09:02:47;3.23;;;2.67;;
9968;SDS011;5025;48.890;9.278;2023-02-18T09:05:13;2.33;;;2.20;;
9968;SDS011;5025;48.890;9.278;2023-02-18T09:07:38;2.47;;;2.27;;
9968;SDS011;5025;48.890;9.278;2023-02-18T09:10:04;2.10;;;2.00;;
9968;SDS011;5025;48.890;9.278;2023-02-18T09:12:30;3.30;;;2.90;;
9968;SDS011;5025;48.890;9.278;2023-02-18T09:14:55;1.73;;;1.63;;
9968;SDS011;5025;48.890;9.278;2023-02-18T09:17:21;2.40;;;2.20;;
9968;SDS011;5025;48.890;9.278;2023-02-18T09:19:46;1.97;;;1.77;;
9968;SDS011;5025;48.890;9.278;2023-02-18T09:22:11;1.60;;;1.50;;
9968;SDS011;5025;48.890;9.278;2023-02-18T09:24:38;1.73;;;1.63;;
9968;SDS011;5025;48.890;9.278;2023-02-18T09:27:06;1.47;;;1.40;;
9968;SDS011;5025;48.890;9.278;2023-02-18T09:29:31;1.20;;;1.20;;
9968;SDS011;5025;48.890;9.278;2023-02-18T09:32:00;1.30;;;1.20;;
9968;SDS011;5025;48.890;9.278;2023-02-18T09:34:26;10.13;;;2.20;;
9968;SDS011;5025;48.890;9.278;2023-02-18T09:36:52;9.13;;;2.17;;
9968;SDS011;5025;48.890;9.278;2023-02-18T09:39:17;6.03;;;1.90;;
9968;SDS011;5025;48.890;9.278;2023-02-18T09:42:17;19.57;;;3.33;;
9968;SDS011;5025;48.890;9.278;2023-02-18T09:44:39;1.10;;;1.10;;
9968;SDS011;5025;48.890;9.278;2023-02-18T09:47:12;1.90;;;1.80;;
9968;SDS011;5025;48.890;9.278;2023-02-18T09:49:43;3.53;;;3.20;;
9968;SDS011;5025;48.890;9.278;2023-02-18T09:52:13;2.83;;;2.63;;
9968;SDS011;5025;48.890;9.278;2023-02-18T09:54:42;2.57;;;2.37;;
9968;SDS011;5025;48.890;9.278;2023-02-18T09:57:28;2.13;;;2.03;;
9968;SDS011;5025;48.890;9.278;2023-02-18T10:00:10;2.47;;;2.27;;
9968;SDS011;5025;48.890;9.278;2023-02-18T10:02:47;2.63;;;2.40;;
9968;SDS011;5025;48.890;9.278;2023-02-18T10:05:19;1.73;;;1.63;;
9968;SDS011;5025;48.890;9.278;2023-02-18T10:07:44;1.63;;;1.53;;
9968;SDS011;5025;48.890;9.278;2023-02-18T10:12:57;1.80;;;1.70;;
9968;SDS011;5025;48.890;9.278;2023-02-18T10:15:23;2.73;;;2.10;;
9968;SDS011;5025;48.890;9.278;2023-02-18T10:17:53;1.40;;;1.40;;
9968;SDS011;5025;48.890;9.278;2023-02-18T10:20:22;4.77;;;1.80;;
9968;SDS011;5025;48.890;9.278;2023-02-18T10:22:49;1.70;;;1.60;;
9968;SDS011;5025;48.890;9.278;2023-02-18T10:25:18;2.83;;;1.70;;
9968;SDS011;5025;48.890;9.278;2023-02-18T10:27:46;3.37;;;1.80;;
9968;SDS011;5025;48.890;9.278;2023-02-18T10:32:50;2.10;;;1.40;;
9968;SDS011;5025;48.890;9.278;2023-02-18T10:35:23;2.00;;;1.90;;
9968;SDS011;5025;48.890;9.278;2023-02-18T10:38:16;1.50;;;1.50;;
9968;SDS011;5025;48.890;9.278;2023-02-18T10:46:58;1.60;;;1.50;;
9968;SDS011;5025;48.890;9.278;2023-02-18T10:49:40;2.10;;;1.90;;
9968;SDS011;5025;48.890;9.278;2023-02-18T10:52:13;1.40;;;1.40;;
9968;SDS011;5025;48.890;9.278;2023-02-18T10:54:49;1.73;;;1.63;;
9968;SDS011;5025;48.890;9.278;2023-02-18T10:57:17;2.20;;;2.00;;
9968;SDS011;5025;48.890;9.278;2023-02-18T10:59:54;3.43;;;1.80;;
9968;SDS011;5025;48.890;9.278;2023-02-18T11:02:39;5.13;;;2.30;;
9968;SDS011;5025;48.890;9.278;2023-02-18T11:05:25;3.17;;;2.97;;
9968;SDS011;5025;48.890;9.278;2023-02-18T11:07:52;1.30;;;1.30;;
9968;SDS011;5025;48.890;9.278;2023-02-18T11:12:52;3.93;;;2.97;;
9968;SDS011;5025;48.890;9.278;2023-02-18T11:15:22;1.77;;;1.67;;
9968;SDS011;5025;48.890;9.278;2023-02-18T11:17:53;11.57;;;7.17;;
9968;SDS011;5025;48.890;9.278;2023-02-18T11:22:45;1.70;;;1.60;;
9968;SDS011;5025;48.890;9.278;2023-02-18T11:25:19;1.40;;;1.30;;
9968;SDS011;5025;48.890;9.278;2023-02-18T11:27:56;1.90;;;1.40;;
9968;SDS011;5025;48.890;9.278;2023-02-18T11:35:54;1.70;;;1.60;;
9968;SDS011;5025;48.890;9.278;2023-02-18T11:38:37;2.53;;;1.50;;
9968;SDS011;5025;48.890;9.278;2023-02-18T11:41:10;1.70;;;1.60;;
9968;SDS011;5025;48.890;9.278;2023-02-18T11:43:42;1.60;;;1.60;;
9968;SDS011;5025;48.890;9.278;2023-02-18T11:46:18;3.03;;;2.00;;
9968;SDS011;5025;48.890;9.278;2023-02-18T11:48:45;2.30;;;1.80;;
9968;SDS011;5025;48.890;9.278;2023-02-18T11:51:20;3.33;;;3.10;;
9968;SDS011;5025;48.890;9.278;2023-02-18T11:53:59;1.80;;;1.70;;
9968;SDS011;5025;48.890;9.278;2023-02-18T11:56:53;2.00;;;1.80;;
9968;SDS011;5025;48.890;9.278;2023-02-18T11:59:31;1.47;;;1.47;;
9968;SDS011;5025;48.890;9.278;2023-02-18T12:04:40;2.03;;;1.60;;
9968;SDS011;5025;48.890;9.278;2023-02-18T12:07:19;2.10;;;1.90;;
9968;SDS011;5025;48.890;9.278;2023-02-18T12:09:50;4.77;;;1.80;;
9968;SDS011;5025;48.890;9.278;2023-02-18T12:14:51;1.63;;;1.30;;
9968;SDS011;5025;48.890;9.278;2023-02-18T12:17:29;1.83;;;1.67;;
9968;SDS011;5025;48.890;9.278;2023-02-18T12:23:28;1.90;;;1.80;;
9968;SDS011;5025;48.890;9.278;2023-02-18T12:26:07;2.30;;;1.67;;
9968;SDS011;5025;48.890;9.278;2023-02-18T12:28:41;1.90;;;1.80;;
9968;SDS011;5025;48.890;9.278;2023-02-18T12:40:18;1.80;;;1.70;;
9968;SDS011;5025;48.890;9.278;2023-02-18T12:46:13;2.30;;;2.07;;
9968;SDS011;5025;48.890;9.278;2023-02-18T12:56:47;2.00;;;1.90;;
9968;SDS011;5025;48.890;9.278;2023-02-18T13:16:39;1.90;;;1.80;;
9968;SDS011;5025;48.890;9.278;2023-02-18T13:21:58;1.80;;;1.70;;
9968;SDS011;5025;48.890;9.278;2023-02-18T13:24:29;1.80;;;1.70;;
9968;SDS011;5025;48.890;9.278;2023-02-18T13:27:02;2.00;;;1.90;;
9968;SDS011;5025;48.890;9.278;2023-02-18T13:29:43;1.77;;;1.70;;
9968;SDS011;5025;48.890;9.278;2023-02-18T13:32:36;2.57;;;2.20;;
9968;SDS011;5025;48.890;9.278;2023-02-18T13:35:22;2.00;;;1.90;;
9968;SDS011;5025;48.890;9.278;2023-02-18T13:40:36;2.53;;;1.90;;
9968;SDS011;5025;48.890;9.278;2023-02-18T13:43:45;2.07;;;1.70;;
9968;SDS011;5025;48.890;9.278;2023-02-18T13:46:08;1.77;;;1.67;;
9968;SDS011;5025;48.890;9.278;2023-02-18T13:54:43;1.80;;;1.70;;
9968;SDS011;5025;48.890;9.278;2023-02-18T13:56:51;1.80;;;1.70;;
9968;SDS011;5025;48.890;9.278;2023-02-18T13:59:19;1.80;;;1.70;;
9968;SDS011;5025;48.890;9.278;2023-02-18T14:01:51;2.00;;;1.90;;
9968;SDS011;5025;48.890;9.278;2023-02-18T14:09:48;3.13;;;2.83;;
9968;SDS011;5025;48.890;9.278;2023-02-18T14:12:15;2.50;;;2.00;;
9968;SDS011;5025;48.890;9.278;2023-02-18T14:14:41;1.73;;;1.63;;
9968;SDS011;5025;48.890;9.278;2023-02-18T14:17:13;1.97;;;1.77;;
9968;SDS011;5025;48.890;9.278;2023-02-18T14:22:30;2.07;;;1.90;;
9968;SDS011;5025;48.890;9.278;2023-02-18T14:25:02;1.70;;;1.60;;
9968;SDS011;5025;48.890;9.278;2023-02-18T14:27:35;2.40;;;2.20;;
9968;SDS011;5025;48.890;9.278;2023-02-18T14:30:06;2.30;;;2.10;;
9968;SDS011;5025;48.890;9.278;2023-02-18T14:32:55;1.93;;;1.77;;
9968;SDS011;5025;48.890;9.278;2023-02-18T14:35:39;2.00;;;1.90;;
9968;SDS011;5025;48.890;9.278;2023-02-18T14:38:28;1.67;;;1.60;;
9968;SDS011;5025;48.890;9.278;2023-02-18T14:49:43;2.20;;;2.10;;
9968;SDS011;5025;48.890;9.278;2023-02-18T14:52:36;2.33;;;2.13;;
9968;SDS011;5025;48.890;9.278;2023-02-18T14:55:05;3.20;;;2.87;;
9968;SDS011;5025;48.890;9.278;2023-02-18T14:57:40;2.80;;;2.60;;
9968;SDS011;5025;48.890;9.278;2023-02-18T15:00:15;2.97;;;2.43;;
9968;SDS011;5025;48.890;9.278;2023-02-18T15:02:55;3.03;;;2.23;;
9968;SDS011;5025;48.890;9.278;2023-02-18T15:05:23;2.20;;;2.07;;
9968;SDS011;5025;48.890;9.278;2023-02-18T15:13:34;2.50;;;2.40;;
9968;SDS011;5025;48.890;9.278;2023-02-18T15:16:11;1.70;;;1.60;;
9968;SDS011;5025;48.890;9.278;2023-02-18T15:18:41;1.90;;;1.80;;
9968;SDS011;5025;48.890;9.278;2023-02-18T15:21:15;2.57;;;1.90;;
9968;SDS011;5025;48.890;9.278;2023-02-18T15:23:45;2.20;;;2.00;;
9968;SDS011;5025;48.890;9.278;2023-02-18T15:26:12;2.33;;;2.13;;
9968;SDS011;5025;48.890;9.278;2023-02-18T15:29:01;2.10;;;2.00;;
9968;SDS011;5025;48.890;9.278;2023-02-18T15:31:27;2.30;;;2.03;;
9968;SDS011;5025;48.890;9.278;2023-02-18T15:33:54;2.60;;;2.20;;
9968;SDS011;5025;48.890;9.278;2023-02-18T15:36:20;2.20;;;2.10;;
9968;SDS011;5025;48.890;9.278;2023-02-18T15:38:45;2.23;;;2.03;;
9968;SDS011;5025;48.890;9.278;2023-02-18T15:41:13;2.10;;;2.00;;
9968;SDS011;5025;48.890;9.278;2023-02-18T15:43:54;2.20;;;2.10;;
9968;SDS011;5025;48.890;9.278;2023-02-18T15:46:22;2.87;;;2.67;;
9968;SDS011;5025;48.890;9.278;2023-02-18T15:48:50;2.40;;;2.10;;
9968;SDS011;5025;48.890;9.278;2023-02-18T15:51:18;2.77;;;2.60;;
9968;SDS011;5025;48.890;9.278;2023-02-18T15:53:48;2.60;;;2.40;;
9968;SDS011;5025;48.890;9.278;2023-02-18T15:56:20;3.00;;;2.80;;
9968;SDS011;5025;48.890;9.278;2023-02-18T15:58:55;2.17;;;2.07;;
9968;SDS011;5025;48.890;9.278;2023-02-18T16:01:33;2.30;;;2.10;;
9968;SDS011;5025;48.890;9.278;2023-02-18T16:03:58;3.07;;;2.77;;
9968;SDS011;5025;48.890;9.278;2023-02-18T16:06:26;2.10;;;2.00;;
9968;SDS011;5025;48.890;9.278;2023-02-18T16:09:00;2.10;;;2.00;;
9968;SDS011;5025;48.890;9.278;2023-02-18T16:11:28;2.10;;;2.00;;
9968;SDS011;5025;48.890;9.278;2023-02-18T16:13:58;2.10;;;2.00;;
9968;SDS011;5025;48.890;9.278;2023-02-18T16:16:27;2.00;;;1.90;;
9968;SDS011;5025;48.890;9.278;2023-02-18T16:18:54;1.90;;;1.80;;
9968;SDS011;5025;48.890;9.278;2023-02-18T16:23:50;2.30;;;2.10;;
9968;SDS011;5025;48.890;9.278;2023-02-18T16:26:29;2.20;;;2.10;;
9968;SDS011;5025;48.890;9.278;2023-02-18T16:31:46;2.00;;;1.80;;
9968;SDS011;5025;48.890;9.278;2023-02-18T16:34:11;2.17;;;2.00;;
9968;SDS011;5025;48.890;9.278;2023-02-18T16:36:36;2.20;;;2.10;;
9968;SDS011;5025;48.890;9.278;2023-02-18T16:39:22;2.63;;;2.00;;
9968;SDS011;5025;48.890;9.278;2023-02-18T16:41:47;2.30;;;2.10;;
9968;SDS011;5025;48.890;9.278;2023-02-18T16:44:13;3.33;;;2.10;;
9968;SDS011;5025;48.890;9.278;2023-02-18T16:46:39;4.43;;;4.03;;
9968;SDS011;5025;48.890;9.278;2023-02-18T16:49:04;2.00;;;1.90;;
9968;SDS011;5025;48.890;9.278;2023-02-18T16:51:30;2.93;;;2.57;;
9968;SDS011;5025;48.890;9.278;2023-02-18T16:53:58;3.40;;;3.10;;
9968;SDS011;5025;48.890;9.278;2023-02-18T16:56:25;3.53;;;3.23;;
9968;SDS011;5025;48.890;9.278;2023-02-18T16:58:54;2.10;;;2.00;;
9968;SDS011;5025;48.890;9.278;2023-02-18T17:03:47;4.60;;;3.30;;
9968;SDS011;5025;48.890;9.278;2023-02-18T17:06:13;2.90;;;2.70;;
9968;SDS011;5025;48.890;9.278;2023-02-18T17:08:39;3.60;;;3.30;;
9968;SDS011;5025;48.890;9.278;2023-02-18T17:11:04;4.93;;;4.13;;
9968;SDS011;5025;48.890;9.278;2023-02-18T17:13:29;3.30;;;3.00;;
9968;SDS011;5025;48.890;9.278;2023-02-18T17:15:56;2.77;;;2.57;;
9968;SDS011;5025;48.890;9.278;2023-02-18T17:18:22;4.50;;;2.83;;
9968;SDS011;5025;48.890;9.278;2023-02-18T17:20:50;2.80;;;2.60;;
9968;SDS011;5025;48.890;9.278;2023-02-18T17:23:17;3.53;;;2.23;;
9968;SDS011;5025;48.890;9.278;2023-02-18T17:25:45;3.40;;;2.63;;
9968;SDS011;5025;48.890;9.278;2023-02-18T17:28:13;2.63;;;2.13;;
9968;SDS011;5025;48.890;9.278;2023-02-18T17:30:43;2.07;;;1.93;;
9968;SDS011;5025;48.890;9.278;2023-02-18T17:33:11;2.27;;;2.10;;
9968;SDS011;5025;48.890;9.278;2023-02-18T17:35:39;2.43;;;2.23;;
9968;SDS011;5025;48.890;9.278;2023-02-18T17:38:15;1.90;;;1.80;;
9968;SDS011;5025;48.890;9.278;2023-02-18T17:40:43;2.33;;;2.20;;
9968;SDS011;5025;48.890;9.278;2023-02-18T17:43:12;2.20;;;2.10;;
9968;SDS011;5025;48.890;9.278;2023-02-18T17:45:41;2.43;;;2.30;;
9968;SDS011;5025;48.890;9.278;2023-02-18T17:48:08;2.27;;;2.17;;
9968;SDS011;5025;48.890;9.278;2023-02-18T17:50:34;5.20;;;2.20;;
9968;SDS011;5025;48.890;9.278;2023-02-18T17:52:59;2.40;;;2.30;;
9968;SDS011;5025;48.890;9.278;2023-02-18T17:55:26;2.70;;;2.50;;
9968;SDS011;5025;48.890;9.278;2023-02-18T17:57:54;2.70;;;2.60;;
9968;SDS011;5025;48.890;9.278;2023-02-18T18:00:21;2.20;;;2.10;;